sensor_id;sensor_type;location;lat;lon;timestamp;P1;durP1;ratioP1;P2;durP2;ratioP2
46318;SDS011;32042;50.916;2.926;2022-08-19T00:01:32;26.08;;;20.88;;
46318;SDS011;32042;50.916;2.926;2022-08-19T00:03:59;28.52;;;20.95;;
46318;SDS011;32042;50.916;2.926;2022-08-19T00:06:27;28.10;;;19.83;;
46318;SDS011;32042;50.916;2.926;2022-08-19T00:08:53;26.65;;;20.40;;
46318;SDS011;32042;50.916;2.926;2022-08-19T00:11:20;27.10;;;20.52;;
46318;SDS011;32042;50.916;2.926;2022-08-19T00:13:46;28.60;;;20.45;;
46318;SDS011;32042;50.916;2.926;2022-08-19T00:16:15;27.42;;;20.30;;
46318;SDS011;32042;50.916;2.926;2022-08-19T00:18:44;23.92;;;18.38;;
46318;SDS011;32042;50.916;2.926;2022-08-19T00:21:10;22.65;;;19.02;;
46318;SDS011;32042;50.916;2.926;2022-08-19T00:23:36;25.67;;;19.65;;
46318;SDS011;32042;50.916;2.926;2022-08-19T00:26:03;27.15;;;17.75;;
46318;SDS011;32042;50.916;2.926;2022-08-19T00:28:29;22.20;;;17.60;;
46318;SDS011;32042;50.916;2.926;2022-08-19T00:30:56;28.67;;;17.92;;
46318;SDS011;32042;50.916;2.926;2022-08-19T00:33:22;26.45;;;17.42;;
46318;SDS011;32042;50.916;2.926;2022-08-19T00:35:48;21.73;;;16.90;;
46318;SDS011;32042;50.916;2.926;2022-08-19T00:38:14;27.20;;;18.45;;
46318;SDS011;32042;50.916;2.926;2022-08-19T00:40:41;23.77;;;17.98;;
46318;SDS011;32042;50.916;2.926;2022-08-19T00:43:10;25.17;;;16.95;;
46318;SDS011;32042;50.916;2.926;2022-08-19T00:45:38;27.67;;;17.52;;
46318;SDS011;32042;50.916;2.926;2022-08-19T00:48:07;23.05;;;17.20;;
46318;SDS011;32042;50.916;2.926;2022-08-19T00:50:33;21.17;;;17.77;;
46318;SDS011;32042;50.916;2.926;2022-08-19T00:53:00;24.15;;;17.38;;
46318;SDS011;32042;50.916;2.926;2022-08-19T00:55:29;29.30;;;18.45;;
46318;SDS011;32042;50.916;2.926;2022-08-19T00:57:58;25.33;;;17.70;;
46318;SDS011;32042;50.916;2.926;2022-08-19T01:00:26;24.98;;;17.52;;
46318;SDS011;32042;50.916;2.926;2022-08-19T01:02:52;23.27;;;16.83;;
46318;SDS011;32042;50.916;2.926;2022-08-19T01:05:20;21.75;;;17.60;;
46318;SDS011;32042;50.916;2.926;2022-08-19T01:07:47;20.33;;;16.67;;
46318;SDS011;32042;50.916;2.926;2022-08-19T01:10:15;26.95;;;16.90;;
46318;SDS011;32042;50.916;2.926;2022-08-19T01:12:41;22.20;;;17.83;;
46318;SDS011;32042;50.916;2.926;2022-08-19T01:15:08;24.50;;;16.38;;
46318;SDS011;32042;50.916;2.926;2022-08-19T01:17:36;23.25;;;16.85;;
46318;SDS011;32042;50.916;2.926;2022-08-19T01:20:04;20.65;;;16.90;;
46318;SDS011;32042;50.916;2.926;2022-08-19T01:25:03;21.70;;;16.30;;
46318;SDS011;32042;50.916;2.926;2022-08-19T01:27:37;22.92;;;15.65;;
46318;SDS011;32042;50.916;2.926;2022-08-19T01:30:03;20.60;;;15.35;;
46318;SDS011;32042;50.916;2.926;2022-08-19T01:32:30;18.48;;;15.77;;
46318;SDS011;32042;50.916;2.926;2022-08-19T01:34:56;19.88;;;14.05;;
46318;SDS011;32042;50.916;2.926;2022-08-19T01:37:22;20.45;;;15.35;;
46318;SDS011;32042;50.916;2.926;2022-08-19T01:39:50;19.13;;;13.48;;
46318;SDS011;32042;50.916;2.926;2022-08-19T01:42:16;16.70;;;12.82;;
46318;SDS011;32042;50.916;2.926;2022-08-19T01:44:42;22.05;;;14.00;;
46318;SDS011;32042;50.916;2.926;2022-08-19T01:47:09;22.05;;;14.10;;
46318;SDS011;32042;50.916;2.926;2022-08-19T01:49:35;16.77;;;12.63;;
46318;SDS011;32042;50.916;2.926;2022-08-19T01:52:02;14.27;;;12.68;;
46318;SDS011;32042;50.916;2.926;2022-08-19T01:54:29;18.08;;;13.00;;
46318;SDS011;32042;50.916;2.926;2022-08-19T01:56:57;21.13;;;13.32;;
46318;SDS011;32042;50.916;2.926;2022-08-19T01:59:23;20.40;;;12.52;;
46318;SDS011;32042;50.916;2.926;2022-08-19T02:01:49;16.17;;;12.95;;
46318;SDS011;32042;50.916;2.926;2022-08-19T02:04:16;16.75;;;12.25;;
46318;SDS011;32042;50.916;2.926;2022-08-19T02:06:42;15.50;;;12.45;;
46318;SDS011;32042;50.916;2.926;2022-08-19T02:09:08;15.77;;;12.40;;
46318;SDS011;32042;50.916;2.926;2022-08-19T02:11:35;22.40;;;12.18;;
46318;SDS011;32042;50.916;2.926;2022-08-19T02:14:02;15.27;;;11.95;;
46318;SDS011;32042;50.916;2.926;2022-08-19T02:16:28;17.83;;;11.85;;
46318;SDS011;32042;50.916;2.926;2022-08-19T02:18:55;17.73;;;10.85;;
46318;SDS011;32042;50.916;2.926;2022-08-19T02:21:22;18.05;;;11.95;;
46318;SDS011;32042;50.916;2.926;2022-08-19T02:23:48;14.25;;;11.45;;
46318;SDS011;32042;50.916;2.926;2022-08-19T02:26:14;17.48;;;11.02;;
46318;SDS011;32042;50.916;2.926;2022-08-19T02:28:41;16.70;;;10.88;;
46318;SDS011;32042;50.916;2.926;2022-08-19T02:31:16;23.40;;;11.23;;
46318;SDS011;32042;50.916;2.926;2022-08-19T02:33:44;12.98;;;11.60;;
46318;SDS011;32042;50.916;2.926;2022-08-19T02:36:12;17.48;;;10.75;;
46318;SDS011;32042;50.916;2.926;2022-08-19T02:38:39;17.23;;;11.27;;
46318;SDS011;32042;50.916;2.926;2022-08-19T02:41:09;17.70;;;11.63;;
46318;SDS011;32042;50.916;2.926;2022-08-19T02:43:37;19.48;;;12.50;;
46318;SDS011;32042;50.916;2.926;2022-08-19T02:46:12;18.25;;;11.38;;
46318;SDS011;32042;50.916;2.926;2022-08-19T02:48:39;11.02;;;9.90;;
46318;SDS011;32042;50.916;2.926;2022-08-19T02:51:06;18.02;;;10.75;;
46318;SDS011;32042;50.916;2.926;2022-08-19T02:53:33;16.35;;;10.40;;
46318;SDS011;32042;50.916;2.926;2022-08-19T02:55:59;13.82;;;10.20;;
46318;SDS011;32042;50.916;2.926;2022-08-19T02:58:25;15.07;;;9.70;;
46318;SDS011;32042;50.916;2.926;2022-08-19T03:00:52;17.38;;;10.23;;
46318;SDS011;32042;50.916;2.926;2022-08-19T03:03:19;14.95;;;10.00;;
46318;SDS011;32042;50.916;2.926;2022-08-19T03:05:46;17.52;;;10.52;;
46318;SDS011;32042;50.916;2.926;2022-08-19T03:08:12;18.55;;;10.13;;
46318;SDS011;32042;50.916;2.926;2022-08-19T03:10:40;14.15;;;10.80;;
46318;SDS011;32042;50.916;2.926;2022-08-19T03:13:08;22.80;;;10.50;;
46318;SDS011;32042;50.916;2.926;2022-08-19T03:15:34;13.60;;;9.35;;
46318;SDS011;32042;50.916;2.926;2022-08-19T03:18:04;15.73;;;9.43;;
46318;SDS011;32042;50.916;2.926;2022-08-19T03:20:30;15.30;;;9.75;;
46318;SDS011;32042;50.916;2.926;2022-08-19T03:22:56;14.90;;;9.75;;
46318;SDS011;32042;50.916;2.926;2022-08-19T03:25:22;16.42;;;9.65;;
46318;SDS011;32042;50.916;2.926;2022-08-19T03:27:48;14.93;;;9.20;;
46318;SDS011;32042;50.916;2.926;2022-08-19T03:30:14;16.73;;;10.30;;
46318;SDS011;32042;50.916;2.926;2022-08-19T03:32:40;14.13;;;9.43;;
46318;SDS011;32042;50.916;2.926;2022-08-19T03:35:07;18.52;;;9.35;;
46318;SDS011;32042;50.916;2.926;2022-08-19T03:37:33;22.45;;;10.38;;
46318;SDS011;32042;50.916;2.926;2022-08-19T03:39:59;21.77;;;10.27;;
46318;SDS011;32042;50.916;2.926;2022-08-19T03:42:27;18.02;;;10.95;;
46318;SDS011;32042;50.916;2.926;2022-08-19T03:44:53;17.98;;;9.63;;
46318;SDS011;32042;50.916;2.926;2022-08-19T03:47:19;17.25;;;9.75;;
46318;SDS011;32042;50.916;2.926;2022-08-19T03:49:45;18.83;;;10.15;;
46318;SDS011;32042;50.916;2.926;2022-08-19T03:52:12;15.88;;;9.38;;
46318;SDS011;32042;50.916;2.926;2022-08-19T03:54:38;22.17;;;10.30;;
46318;SDS011;32042;50.916;2.926;2022-08-19T03:57:05;21.60;;;10.38;;
46318;SDS011;32042;50.916;2.926;2022-08-19T03:59:32;15.35;;;9.95;;
46318;SDS011;32042;50.916;2.926;2022-08-19T04:01:59;13.43;;;10.13;;
46318;SDS011;32042;50.916;2.926;2022-08-19T04:04:25;18.30;;;10.27;;
46318;SDS011;32042;50.916;2.926;2022-08-19T04:06:51;12.45;;;9.15;;
46318;SDS011;32042;50.916;2.926;2022-08-19T04:09:17;13.93;;;9.57;;
46318;SDS011;32042;50.916;2.926;2022-08-19T04:11:48;15.38;;;9.75;;
46318;SDS011;32042;50.916;2.926;2022-08-19T04:14:17;16.80;;;9.90;;
46318;SDS011;32042;50.916;2.926;2022-08-19T04:16:44;25.45;;;10.98;;
46318;SDS011;32042;50.916;2.926;2022-08-19T04:19:10;21.58;;;10.73;;
46318;SDS011;32042;50.916;2.926;2022-08-19T04:21:36;15.40;;;11.07;;
46318;SDS011;32042;50.916;2.926;2022-08-19T04:24:02;18.48;;;11.05;;
46318;SDS011;32042;50.916;2.926;2022-08-19T04:26:30;21.63;;;10.50;;
46318;SDS011;32042;50.916;2.926;2022-08-19T04:28:57;18.13;;;11.10;;
46318;SDS011;32042;50.916;2.926;2022-08-19T04:31:26;22.48;;;11.30;;
46318;SDS011;32042;50.916;2.926;2022-08-19T04:33:53;22.40;;;11.68;;
46318;SDS011;32042;50.916;2.926;2022-08-19T04:36:23;18.15;;;11.77;;
46318;SDS011;32042;50.916;2.926;2022-08-19T04:38:52;19.58;;;11.75;;
46318;SDS011;32042;50.916;2.926;2022-08-19T04:41:18;19.00;;;11.70;;
46318;SDS011;32042;50.916;2.926;2022-08-19T04:44:03;21.42;;;11.35;;
46318;SDS011;32042;50.916;2.926;2022-08-19T04:46:30;22.50;;;12.90;;
46318;SDS011;32042;50.916;2.926;2022-08-19T04:49:00;20.05;;;13.00;;
46318;SDS011;32042;50.916;2.926;2022-08-19T04:51:27;21.63;;;13.95;;
46318;SDS011;32042;50.916;2.926;2022-08-19T04:53:56;23.83;;;14.35;;
46318;SDS011;32042;50.916;2.926;2022-08-19T04:56:22;20.33;;;12.75;;
46318;SDS011;32042;50.916;2.926;2022-08-19T04:58:51;22.08;;;13.05;;
46318;SDS011;32042;50.916;2.926;2022-08-19T05:01:18;24.80;;;13.82;;
46318;SDS011;32042;50.916;2.926;2022-08-19T05:03:45;29.98;;;14.13;;
46318;SDS011;32042;50.916;2.926;2022-08-19T05:06:11;22.48;;;13.05;;
46318;SDS011;32042;50.916;2.926;2022-08-19T05:08:39;23.30;;;12.93;;
46318;SDS011;32042;50.916;2.926;2022-08-19T05:11:11;18.73;;;12.02;;
46318;SDS011;32042;50.916;2.926;2022-08-19T05:13:38;17.98;;;13.82;;
46318;SDS011;32042;50.916;2.926;2022-08-19T05:16:04;20.10;;;12.90;;
46318;SDS011;32042;50.916;2.926;2022-08-19T05:18:30;26.05;;;13.02;;
46318;SDS011;32042;50.916;2.926;2022-08-19T05:21:17;17.38;;;11.20;;
46318;SDS011;32042;50.916;2.926;2022-08-19T05:24:02;18.17;;;12.02;;
46318;SDS011;32042;50.916;2.926;2022-08-19T05:26:28;17.92;;;11.00;;
46318;SDS011;32042;50.916;2.926;2022-08-19T05:28:55;18.45;;;11.65;;
46318;SDS011;32042;50.916;2.926;2022-08-19T05:31:21;15.48;;;10.95;;
46318;SDS011;32042;50.916;2.926;2022-08-19T05:33:47;13.20;;;10.73;;
46318;SDS011;32042;50.916;2.926;2022-08-19T05:36:15;15.10;;;10.73;;
46318;SDS011;32042;50.916;2.926;2022-08-19T05:38:41;12.70;;;10.00;;
46318;SDS011;32042;50.916;2.926;2022-08-19T05:41:13;12.23;;;9.60;;
46318;SDS011;32042;50.916;2.926;2022-08-19T05:43:41;14.40;;;9.40;;
46318;SDS011;32042;50.916;2.926;2022-08-19T05:46:07;14.32;;;9.82;;
46318;SDS011;32042;50.916;2.926;2022-08-19T05:48:34;13.50;;;9.90;;
46318;SDS011;32042;50.916;2.926;2022-08-19T05:51:04;14.20;;;9.40;;
46318;SDS011;32042;50.916;2.926;2022-08-19T05:53:31;16.08;;;9.88;;
46318;SDS011;32042;50.916;2.926;2022-08-19T05:56:02;14.20;;;9.15;;
46318;SDS011;32042;50.916;2.926;2022-08-19T05:58:28;14.27;;;9.80;;
46318;SDS011;32042;50.916;2.926;2022-08-19T06:00:55;13.20;;;9.88;;
46318;SDS011;32042;50.916;2.926;2022-08-19T06:03:21;14.23;;;9.68;;
46318;SDS011;32042;50.916;2.926;2022-08-19T06:05:47;16.02;;;9.18;;
46318;SDS011;32042;50.916;2.926;2022-08-19T06:08:13;16.55;;;9.38;;
46318;SDS011;32042;50.916;2.926;2022-08-19T06:10:40;14.00;;;9.85;;
46318;SDS011;32042;50.916;2.926;2022-08-19T06:13:06;13.27;;;9.38;;
46318;SDS011;32042;50.916;2.926;2022-08-19T06:15:32;17.13;;;9.32;;
46318;SDS011;32042;50.916;2.926;2022-08-19T06:17:58;12.07;;;8.73;;
46318;SDS011;32042;50.916;2.926;2022-08-19T06:20:26;8.57;;;7.45;;
46318;SDS011;32042;50.916;2.926;2022-08-19T06:22:52;11.75;;;9.07;;
46318;SDS011;32042;50.916;2.926;2022-08-19T06:25:18;17.77;;;9.88;;
46318;SDS011;32042;50.916;2.926;2022-08-19T06:27:45;12.80;;;8.82;;
46318;SDS011;32042;50.916;2.926;2022-08-19T06:30:11;17.38;;;10.20;;
46318;SDS011;32042;50.916;2.926;2022-08-19T06:32:37;19.02;;;10.13;;
46318;SDS011;32042;50.916;2.926;2022-08-19T06:35:04;13.88;;;9.23;;
46318;SDS011;32042;50.916;2.926;2022-08-19T06:37:30;16.25;;;9.90;;
46318;SDS011;32042;50.916;2.926;2022-08-19T06:39:56;14.13;;;9.73;;
46318;SDS011;32042;50.916;2.926;2022-08-19T06:42:22;16.92;;;8.80;;
46318;SDS011;32042;50.916;2.926;2022-08-19T06:44:50;11.10;;;9.02;;
46318;SDS011;32042;50.916;2.926;2022-08-19T06:47:17;17.88;;;9.18;;
46318;SDS011;32042;50.916;2.926;2022-08-19T06:49:43;11.10;;;7.85;;
46318;SDS011;32042;50.916;2.926;2022-08-19T06:52:10;16.00;;;7.85;;
46318;SDS011;32042;50.916;2.926;2022-08-19T06:54:40;11.05;;;7.85;;
46318;SDS011;32042;50.916;2.926;2022-08-19T06:57:07;13.45;;;8.45;;
46318;SDS011;32042;50.916;2.926;2022-08-19T06:59:38;9.45;;;7.20;;
46318;SDS011;32042;50.916;2.926;2022-08-19T07:02:05;10.85;;;6.55;;
46318;SDS011;32042;50.916;2.926;2022-08-19T07:04:32;7.95;;;6.72;;
46318;SDS011;32042;50.916;2.926;2022-08-19T07:07:04;9.98;;;6.72;;
46318;SDS011;32042;50.916;2.926;2022-08-19T07:09:32;6.80;;;5.57;;
46318;SDS011;32042;50.916;2.926;2022-08-19T07:11:58;7.88;;;5.95;;
46318;SDS011;32042;50.916;2.926;2022-08-19T07:14:27;9.52;;;6.38;;
46318;SDS011;32042;50.916;2.926;2022-08-19T07:16:54;9.38;;;6.85;;
46318;SDS011;32042;50.916;2.926;2022-08-19T07:19:21;10.27;;;6.70;;
46318;SDS011;32042;50.916;2.926;2022-08-19T07:21:48;8.70;;;6.45;;
46318;SDS011;32042;50.916;2.926;2022-08-19T07:24:16;12.50;;;6.90;;
46318;SDS011;32042;50.916;2.926;2022-08-19T07:26:43;11.27;;;6.75;;
46318;SDS011;32042;50.916;2.926;2022-08-19T07:29:10;12.05;;;7.00;;
46318;SDS011;32042;50.916;2.926;2022-08-19T07:31:36;10.27;;;6.60;;
46318;SDS011;32042;50.916;2.926;2022-08-19T07:34:03;11.32;;;7.28;;
46318;SDS011;32042;50.916;2.926;2022-08-19T07:36:34;8.80;;;6.57;;
46318;SDS011;32042;50.916;2.926;2022-08-19T07:39:02;10.07;;;5.90;;
46318;SDS011;32042;50.916;2.926;2022-08-19T07:41:29;8.13;;;6.20;;
46318;SDS011;32042;50.916;2.926;2022-08-19T07:43:56;6.68;;;6.07;;
46318;SDS011;32042;50.916;2.926;2022-08-19T07:46:23;6.30;;;5.30;;
46318;SDS011;32042;50.916;2.926;2022-08-19T07:48:49;6.55;;;4.75;;
46318;SDS011;32042;50.916;2.926;2022-08-19T07:51:18;7.03;;;4.28;;
46318;SDS011;32042;50.916;2.926;2022-08-19T07:53:45;6.20;;;3.90;;
46318;SDS011;32042;50.916;2.926;2022-08-19T07:56:14;7.32;;;4.05;;
46318;SDS011;32042;50.916;2.926;2022-08-19T07:58:41;6.10;;;3.50;;
46318;SDS011;32042;50.916;2.926;2022-08-19T08:01:13;4.13;;;3.72;;
46318;SDS011;32042;50.916;2.926;2022-08-19T08:03:39;7.63;;;3.40;;
46318;SDS011;32042;50.916;2.926;2022-08-19T08:06:24;4.22;;;3.22;;
46318;SDS011;32042;50.916;2.926;2022-08-19T08:09:09;3.83;;;3.03;;
46318;SDS011;32042;50.916;2.926;2022-08-19T08:11:49;3.55;;;2.83;;
46318;SDS011;32042;50.916;2.926;2022-08-19T08:14:56;4.82;;;2.80;;
46318;SDS011;32042;50.916;2.926;2022-08-19T08:17:15;4.45;;;2.13;;
46318;SDS011;32042;50.916;2.926;2022-08-19T08:19:41;3.55;;;1.80;;
46318;SDS011;32042;50.916;2.926;2022-08-19T08:22:08;2.45;;;2.00;;
46318;SDS011;32042;50.916;2.926;2022-08-19T08:24:54;2.15;;;1.70;;
46318;SDS011;32042;50.916;2.926;2022-08-19T08:27:23;3.25;;;1.90;;
46318;SDS011;32042;50.916;2.926;2022-08-19T08:29:49;3.22;;;1.77;;
46318;SDS011;32042;50.916;2.926;2022-08-19T08:32:15;2.00;;;1.45;;
46318;SDS011;32042;50.916;2.926;2022-08-19T08:34:42;3.90;;;1.67;;
46318;SDS011;32042;50.916;2.926;2022-08-19T08:37:08;2.70;;;1.58;;
46318;SDS011;32042;50.916;2.926;2022-08-19T08:39:34;3.72;;;1.45;;
46318;SDS011;32042;50.916;2.926;2022-08-19T08:42:15;2.22;;;1.20;;
46318;SDS011;32042;50.916;2.926;2022-08-19T08:44:59;2.38;;;1.30;;
46318;SDS011;32042;50.916;2.926;2022-08-19T08:47:25;2.35;;;1.08;;
46318;SDS011;32042;50.916;2.926;2022-08-19T08:49:55;1.92;;;1.00;;
46318;SDS011;32042;50.916;2.926;2022-08-19T08:52:24;1.70;;;0.90;;
46318;SDS011;32042;50.916;2.926;2022-08-19T08:54:55;2.20;;;0.90;;
46318;SDS011;32042;50.916;2.926;2022-08-19T08:59:48;1.27;;;1.17;;
46318;SDS011;32042;50.916;2.926;2022-08-19T09:02:16;1.55;;;1.35;;
46318;SDS011;32042;50.916;2.926;2022-08-19T09:04:42;1.45;;;1.35;;
46318;SDS011;32042;50.916;2.926;2022-08-19T09:07:15;1.52;;;1.10;;
46318;SDS011;32042;50.916;2.926;2022-08-19T09:09:47;1.42;;;0.90;;
46318;SDS011;32042;50.916;2.926;2022-08-19T09:17:12;2.70;;;0.90;;
46318;SDS011;32042;50.916;2.926;2022-08-19T09:22:16;1.20;;;1.10;;
46318;SDS011;32042;50.916;2.926;2022-08-19T09:24:42;1.55;;;0.88;;
46318;SDS011;32042;50.916;2.926;2022-08-19T09:27:08;3.65;;;0.90;;
46318;SDS011;32042;50.916;2.926;2022-08-19T09:29:34;1.27;;;0.90;;
46318;SDS011;32042;50.916;2.926;2022-08-19T09:32:00;1.83;;;1.30;;
46318;SDS011;32042;50.916;2.926;2022-08-19T09:34:26;2.78;;;0.88;;
46318;SDS011;32042;50.916;2.926;2022-08-19T09:36:54;5.13;;;1.30;;
46318;SDS011;32042;50.916;2.926;2022-08-19T09:39:23;3.63;;;1.08;;
46318;SDS011;32042;50.916;2.926;2022-08-19T09:41:49;1.27;;;0.70;;
46318;SDS011;32042;50.916;2.926;2022-08-19T09:44:15;1.52;;;0.90;;
46318;SDS011;32042;50.916;2.926;2022-08-19T09:46:41;2.00;;;0.90;;
46318;SDS011;32042;50.916;2.926;2022-08-19T09:49:07;3.25;;;1.00;;
46318;SDS011;32042;50.916;2.926;2022-08-19T09:51:33;0.68;;;0.68;;
46318;SDS011;32042;50.916;2.926;2022-08-19T09:54:00;1.65;;;1.00;;
46318;SDS011;32042;50.916;2.926;2022-08-19T09:56:27;1.77;;;0.90;;
46318;SDS011;32042;50.916;2.926;2022-08-19T09:58:53;1.70;;;1.00;;
46318;SDS011;32042;50.916;2.926;2022-08-19T10:01:23;1.42;;;0.85;;
46318;SDS011;32042;50.916;2.926;2022-08-19T10:03:50;1.55;;;0.90;;
46318;SDS011;32042;50.916;2.926;2022-08-19T10:06:18;2.45;;;0.80;;
46318;SDS011;32042;50.916;2.926;2022-08-19T10:08:45;2.67;;;0.75;;
46318;SDS011;32042;50.916;2.926;2022-08-19T10:11:11;0.60;;;0.60;;
46318;SDS011;32042;50.916;2.926;2022-08-19T10:13:39;0.63;;;0.57;;
46318;SDS011;32042;50.916;2.926;2022-08-19T10:16:07;2.00;;;0.88;;
46318;SDS011;32042;50.916;2.926;2022-08-19T10:18:34;1.70;;;0.70;;
46318;SDS011;32042;50.916;2.926;2022-08-19T10:21:13;2.95;;;0.85;;
46318;SDS011;32042;50.916;2.926;2022-08-19T10:23:40;1.55;;;0.63;;
46318;SDS011;32042;50.916;2.926;2022-08-19T10:26:10;0.88;;;0.60;;
46318;SDS011;32042;50.916;2.926;2022-08-19T10:28:36;1.95;;;0.90;;
46318;SDS011;32042;50.916;2.926;2022-08-19T10:31:10;2.30;;;1.05;;
46318;SDS011;32042;50.916;2.926;2022-08-19T10:33:36;1.52;;;1.10;;
46318;SDS011;32042;50.916;2.926;2022-08-19T10:36:04;2.67;;;2.17;;
46318;SDS011;32042;50.916;2.926;2022-08-19T10:38:30;3.85;;;2.30;;
46318;SDS011;32042;50.916;2.926;2022-08-19T10:40:56;3.00;;;1.70;;
46318;SDS011;32042;50.916;2.926;2022-08-19T10:43:22;4.47;;;2.00;;
46318;SDS011;32042;50.916;2.926;2022-08-19T10:45:53;4.45;;;2.15;;
46318;SDS011;32042;50.916;2.926;2022-08-19T10:48:30;7.50;;;2.30;;
46318;SDS011;32042;50.916;2.926;2022-08-19T10:50:57;2.42;;;1.88;;
46318;SDS011;32042;50.916;2.926;2022-08-19T10:53:41;4.38;;;1.83;;
46318;SDS011;32042;50.916;2.926;2022-08-19T10:56:07;2.55;;;1.55;;
46318;SDS011;32042;50.916;2.926;2022-08-19T10:58:52;2.90;;;1.13;;
46318;SDS011;32042;50.916;2.926;2022-08-19T11:01:18;2.38;;;1.48;;
46318;SDS011;32042;50.916;2.926;2022-08-19T11:03:45;3.85;;;1.77;;
46318;SDS011;32042;50.916;2.926;2022-08-19T11:06:11;1.58;;;1.48;;
46318;SDS011;32042;50.916;2.926;2022-08-19T11:08:37;2.35;;;1.70;;
46318;SDS011;32042;50.916;2.926;2022-08-19T11:11:04;3.13;;;1.67;;
46318;SDS011;32042;50.916;2.926;2022-08-19T11:13:32;2.42;;;1.83;;
46318;SDS011;32042;50.916;2.926;2022-08-19T11:16:09;2.35;;;1.40;;
46318;SDS011;32042;50.916;2.926;2022-08-19T11:18:39;2.25;;;1.13;;
46318;SDS011;32042;50.916;2.926;2022-08-19T11:21:09;3.95;;;1.80;;
46318;SDS011;32042;50.916;2.926;2022-08-19T11:23:36;3.15;;;1.80;;
46318;SDS011;32042;50.916;2.926;2022-08-19T11:26:02;4.05;;;1.90;;
46318;SDS011;32042;50.916;2.926;2022-08-19T11:28:28;4.05;;;2.22;;
46318;SDS011;32042;50.916;2.926;2022-08-19T11:30:54;8.13;;;2.10;;
46318;SDS011;32042;50.916;2.926;2022-08-19T11:33:20;8.23;;;2.53;;
46318;SDS011;32042;50.916;2.926;2022-08-19T11:35:46;5.43;;;2.30;;
46318;SDS011;32042;50.916;2.926;2022-08-19T11:38:12;4.65;;;2.00;;
46318;SDS011;32042;50.916;2.926;2022-08-19T11:40:39;5.82;;;2.33;;
46318;SDS011;32042;50.916;2.926;2022-08-19T11:43:07;7.20;;;2.60;;
46318;SDS011;32042;50.916;2.926;2022-08-19T11:45:33;3.92;;;1.90;;
46318;SDS011;32042;50.916;2.926;2022-08-19T11:47:59;3.63;;;1.60;;
46318;SDS011;32042;50.916;2.926;2022-08-19T11:50:25;3.13;;;1.80;;
46318;SDS011;32042;50.916;2.926;2022-08-19T11:52:55;4.22;;;1.75;;
46318;SDS011;32042;50.916;2.926;2022-08-19T11:55:21;4.93;;;1.83;;
46318;SDS011;32042;50.916;2.926;2022-08-19T11:57:47;6.82;;;2.30;;
46318;SDS011;32042;50.916;2.926;2022-08-19T12:00:15;6.22;;;3.33;;
46318;SDS011;32042;50.916;2.926;2022-08-19T12:02:41;6.40;;;2.97;;
46318;SDS011;32042;50.916;2.926;2022-08-19T12:05:07;9.00;;;2.90;;
46318;SDS011;32042;50.916;2.926;2022-08-19T12:07:33;4.80;;;1.90;;
46318;SDS011;32042;50.916;2.926;2022-08-19T12:10:00;5.72;;;2.15;;
46318;SDS011;32042;50.916;2.926;2022-08-19T12:12:26;6.93;;;1.92;;
46318;SDS011;32042;50.916;2.926;2022-08-19T12:14:53;7.38;;;2.25;;
46318;SDS011;32042;50.916;2.926;2022-08-19T12:17:25;4.20;;;2.00;;
46318;SDS011;32042;50.916;2.926;2022-08-19T12:19:52;3.97;;;1.70;;
46318;SDS011;32042;50.916;2.926;2022-08-19T12:22:18;5.45;;;1.60;;
46318;SDS011;32042;50.916;2.926;2022-08-19T12:24:45;3.72;;;1.52;;
46318;SDS011;32042;50.916;2.926;2022-08-19T12:27:12;5.03;;;1.90;;
46318;SDS011;32042;50.916;2.926;2022-08-19T12:29:38;3.63;;;1.30;;
46318;SDS011;32042;50.916;2.926;2022-08-19T12:32:05;3.78;;;1.25;;
46318;SDS011;32042;50.916;2.926;2022-08-19T12:34:31;3.17;;;1.25;;
46318;SDS011;32042;50.916;2.926;2022-08-19T12:36:58;3.58;;;1.23;;
46318;SDS011;32042;50.916;2.926;2022-08-19T12:39:24;4.60;;;1.20;;
46318;SDS011;32042;50.916;2.926;2022-08-19T12:41:50;2.30;;;1.20;;
46318;SDS011;32042;50.916;2.926;2022-08-19T12:44:16;2.45;;;1.25;;
46318;SDS011;32042;50.916;2.926;2022-08-19T12:46:42;3.65;;;1.33;;
46318;SDS011;32042;50.916;2.926;2022-08-19T12:49:08;2.78;;;1.15;;
46318;SDS011;32042;50.916;2.926;2022-08-19T12:51:35;3.17;;;1.17;;
46318;SDS011;32042;50.916;2.926;2022-08-19T12:54:01;3.55;;;1.35;;
46318;SDS011;32042;50.916;2.926;2022-08-19T12:56:27;2.03;;;0.88;;
46318;SDS011;32042;50.916;2.926;2022-08-19T12:58:53;2.47;;;1.00;;
46318;SDS011;32042;50.916;2.926;2022-08-19T13:01:19;3.35;;;1.13;;
46318;SDS011;32042;50.916;2.926;2022-08-19T13:03:46;4.50;;;1.20;;
46318;SDS011;32042;50.916;2.926;2022-08-19T13:06:12;1.67;;;0.98;;
46318;SDS011;32042;50.916;2.926;2022-08-19T13:08:39;3.65;;;1.35;;
46318;SDS011;32042;50.916;2.926;2022-08-19T13:11:06;4.57;;;1.15;;
46318;SDS011;32042;50.916;2.926;2022-08-19T13:13:33;2.97;;;1.02;;
46318;SDS011;32042;50.916;2.926;2022-08-19T13:16:02;1.85;;;0.98;;
46318;SDS011;32042;50.916;2.926;2022-08-19T13:18:28;3.58;;;1.10;;
46318;SDS011;32042;50.916;2.926;2022-08-19T13:20:54;3.53;;;1.00;;
46318;SDS011;32042;50.916;2.926;2022-08-19T13:23:21;5.43;;;1.00;;
46318;SDS011;32042;50.916;2.926;2022-08-19T13:25:55;1.85;;;0.82;;
46318;SDS011;32042;50.916;2.926;2022-08-19T13:28:21;2.53;;;1.05;;
46318;SDS011;32042;50.916;2.926;2022-08-19T13:30:47;3.35;;;0.90;;
46318;SDS011;32042;50.916;2.926;2022-08-19T13:33:32;1.70;;;0.90;;
46318;SDS011;32042;50.916;2.926;2022-08-19T13:35:58;3.28;;;0.90;;
46318;SDS011;32042;50.916;2.926;2022-08-19T13:38:26;1.58;;;0.75;;
46318;SDS011;32042;50.916;2.926;2022-08-19T13:40:53;1.75;;;0.90;;
46318;SDS011;32042;50.916;2.926;2022-08-19T13:43:20;3.13;;;0.82;;
46318;SDS011;32042;50.916;2.926;2022-08-19T13:45:47;3.30;;;1.10;;
46318;SDS011;32042;50.916;2.926;2022-08-19T13:48:14;5.20;;;1.23;;
46318;SDS011;32042;50.916;2.926;2022-08-19T13:50:41;3.22;;;1.05;;
46318;SDS011;32042;50.916;2.926;2022-08-19T13:53:09;2.28;;;0.80;;
46318;SDS011;32042;50.916;2.926;2022-08-19T13:55:36;2.40;;;0.80;;
46318;SDS011;32042;50.916;2.926;2022-08-19T13:58:03;4.47;;;0.80;;
46318;SDS011;32042;50.916;2.926;2022-08-19T14:00:34;1.02;;;0.80;;
46318;SDS011;32042;50.916;2.926;2022-08-19T14:03:00;1.77;;;0.93;;
46318;SDS011;32042;50.916;2.926;2022-08-19T14:05:27;1.88;;;0.80;;
46318;SDS011;32042;50.916;2.926;2022-08-19T14:07:53;2.75;;;1.08;;
46318;SDS011;32042;50.916;2.926;2022-08-19T14:10:20;1.85;;;1.10;;
46318;SDS011;32042;50.916;2.926;2022-08-19T14:12:46;2.97;;;1.00;;
46318;SDS011;32042;50.916;2.926;2022-08-19T14:15:12;2.35;;;0.90;;
46318;SDS011;32042;50.916;2.926;2022-08-19T14:17:40;1.60;;;1.17;;
46318;SDS011;32042;50.916;2.926;2022-08-19T14:20:07;3.80;;;1.15;;
46318;SDS011;32042;50.916;2.926;2022-08-19T14:22:35;1.10;;;1.00;;
46318;SDS011;32042;50.916;2.926;2022-08-19T14:25:02;5.03;;;1.25;;
46318;SDS011;32042;50.916;2.926;2022-08-19T14:27:29;2.80;;;1.40;;
46318;SDS011;32042;50.916;2.926;2022-08-19T14:29:55;3.50;;;1.45;;
46318;SDS011;32042;50.916;2.926;2022-08-19T14:32:21;2.67;;;1.33;;
46318;SDS011;32042;50.916;2.926;2022-08-19T14:34:47;2.30;;;1.05;;
46318;SDS011;32042;50.916;2.926;2022-08-19T14:37:14;2.83;;;1.20;;
46318;SDS011;32042;50.916;2.926;2022-08-19T14:39:40;3.83;;;1.20;;
46318;SDS011;32042;50.916;2.926;2022-08-19T14:42:07;3.70;;;1.10;;
46318;SDS011;32042;50.916;2.926;2022-08-19T14:44:34;3.85;;;1.00;;
46318;SDS011;32042;50.916;2.926;2022-08-19T14:47:00;3.00;;;1.00;;
46318;SDS011;32042;50.916;2.926;2022-08-19T14:49:26;1.60;;;1.02;;
46318;SDS011;32042;50.916;2.926;2022-08-19T14:51:52;1.70;;;1.30;;